Rougemont, North Carolina
Current Conditions -  °F | °C
As of 1:15 PM on Monday 26 Jan 2015 (Local Time) from KTDF Reporting Station
Overcast Overcast  
Wind Chill: 41°   Ceiling: 1100
Heat Index: 45°   Visibility: 10mi
Dew Point: 41°   Wind: 6mph
Humidity: 87%   Direction: 350°N
Pressure: 29.63"   Gusts: NA
Location:  36.22°N, 78.93°W
Report Text: KTDF 261815Z AUTO 35005KT 10SM OVC011 07/05 A2963 RMK AO2
Loading
Personal Weather Stations






























Interactive Weather Map New forecast layout! Learn more

10-Day Weather Forecast

Advertisements
Track Severe Weather on mobile